Time;durP1;ratioP1;P1;durP2;ratioP2;P2;SDS_P1;SDS_P2;PMS_P1;PMS_P2;Temp;Humidity;BMP_temperature;BMP_pressure;BME280_temperature;BME280_humidity;BME280_pressure;Samples;Min_cycle;Max_cycle;Signal;HPM_P1;HPM_P2
2020/12/20 00:01:26;;;;;;;8.20;7.40;;;;;;;1.96;85.94;96091.81;5073116;28;20601;-78
2020/12/20 00:03:53;;;;;;;8.07;7.20;;;;;;;2.02;85.38;96092.19;5072476;28;20208;-78
2020/12/20 00:06:19;;;;;;;8.10;6.90;;;;;;;1.97;84.95;96086.63;5073244;28;20551;-77
2020/12/20 00:08:46;;;;;;;8.37;7.43;;;;;;;1.83;85.45;96080.94;5072688;28;20201;-78
2020/12/20 00:11:12;;;;;;;8.27;7.37;;;;;;;1.72;86.47;96089.31;5073243;28;20225;-78
2020/12/20 00:13:37;;;;;;;8.70;7.10;;;;;;;1.86;85.96;96101.84;5072837;28;20203;-78
2020/12/20 00:16:04;;;;;;;8.47;7.13;;;;;;;2.00;85.39;96099.09;5072922;28;20581;-78
2020/12/20 00:18:30;;;;;;;8.43;7.40;;;;;;;2.07;84.60;96105.38;5072633;28;20243;-78
2020/12/20 00:20:56;;;;;;;8.10;7.30;;;;;;;2.15;83.80;96096.34;5072811;28;20225;-77
2020/12/20 00:23:22;;;;;;;7.80;6.97;;;;;;;2.21;83.27;96095.91;5072339;28;20197;-78
2020/12/20 00:25:48;;;;;;;9.10;7.87;;;;;;;2.23;82.94;96087.25;5072572;28;20283;-78
2020/12/20 00:28:14;;;;;;;7.70;6.83;;;;;;;2.31;82.98;96100.19;5072593;28;20192;-77
2020/12/20 00:30:39;;;;;;;8.23;7.20;;;;;;;2.37;82.68;96101.47;5072786;28;20226;-78
2020/12/20 00:33:06;;;;;;;7.83;7.03;;;;;;;2.47;82.50;96091.47;5071547;28;20706;-77
2020/12/20 00:35:32;;;;;;;8.03;7.23;;;;;;;2.49;82.05;96087.06;5072400;28;20270;-78
2020/12/20 00:37:58;;;;;;;8.40;7.27;;;;;;;2.61;81.88;96092.03;5072153;28;20204;-78
2020/12/20 00:40:26;;;;;;;8.23;7.43;;;;;;;2.45;81.35;96088.22;5072652;28;20204;-78
2020/12/20 00:42:51;;;;;;;8.33;7.53;;;;;;;2.22;83.05;96090.72;5071931;28;20193;-78
2020/12/20 00:45:17;;;;;;;7.97;7.17;;;;;;;2.20;82.89;96079.88;5072221;28;20254;-78
2020/12/20 00:47:43;;;;;;;7.97;7.17;;;;;;;2.07;83.37;96074.06;5072312;28;20197;-75
2020/12/20 00:50:10;;;;;;;8.47;7.53;;;;;;;2.11;83.82;96078.00;5070812;28;20624;-78
2020/12/20 00:52:36;;;;;;;7.67;6.90;;;;;;;2.27;83.03;96081.03;5071798;28;20223;-77
2020/12/20 00:55:02;;;;;;;6.80;6.20;;;;;;;2.43;82.14;96081.50;5072178;28;20197;-78
2020/12/20 00:57:29;;;;;;;8.03;6.87;;;;;;;2.29;82.02;96074.13;5072097;28;20674;-78
2020/12/20 00:59:55;;;;;;;7.03;6.33;;;;;;;2.28;82.42;96066.59;5072123;28;20311;-77
2020/12/20 01:02:21;;;;;;;7.17;6.47;;;;;;;2.40;82.19;96083.47;5071549;28;20232;-77
2020/12/20 01:04:46;;;;;;;7.53;6.73;;;;;;;2.53;81.62;96089.25;5071910;28;20204;-78
2020/12/20 01:07:13;;;;;;;7.27;6.40;;;;;;;2.50;81.41;96097.13;5072050;28;20207;-78
2020/12/20 01:09:41;;;;;;;8.23;7.10;;;;;;;2.57;81.44;96095.72;5071711;28;20200;-77
2020/12/20 01:12:06;;;;;;;7.77;6.97;;;;;;;2.67;80.68;96086.50;5071849;28;20678;-78
2020/12/20 01:14:32;;;;;;;7.70;6.80;;;;;;;2.72;80.03;96089.47;5071839;28;20254;-78
2020/12/20 01:16:58;;;;;;;7.20;6.50;;;;;;;2.71;79.66;96103.13;5071915;28;20570;-78
2020/12/20 01:19:24;;;;;;;7.73;6.93;;;;;;;2.71;80.26;96094.69;5071747;28;20200;-78
2020/12/20 01:21:50;;;;;;;7.37;6.67;;;;;;;2.80;79.70;96096.53;5071473;28;20889;-76
2020/12/20 01:24:17;;;;;;;7.17;6.17;;;;;;;2.87;79.31;96101.97;5071523;28;20193;-78
2020/12/20 01:26:42;;;;;;;8.20;7.40;;;;;;;2.93;78.97;96099.75;5071633;28;20208;-78
2020/12/20 01:29:08;;;;;;;8.37;7.47;;;;;;;2.90;78.84;96096.63;5071809;28;20197;-77
2020/12/20 01:31:34;;;;;;;8.03;7.13;;;;;;;2.90;79.19;96094.91;5071704;28;20714;-77
2020/12/20 01:34:00;;;;;;;8.30;7.50;;;;;;;2.92;79.06;96095.59;5070992;28;20204;-77
2020/12/20 01:36:27;;;;;;;8.27;7.07;;;;;;;2.88;79.09;96093.44;5071557;28;20192;-77
2020/12/20 01:38:53;;;;;;;8.23;7.03;;;;;;;2.78;79.59;96094.13;5071807;28;20574;-77
2020/12/20 01:41:20;;;;;;;8.37;7.40;;;;;;;2.59;80.06;96091.34;5071655;28;20217;-78
2020/12/20 01:43:48;;;;;;;7.87;7.07;;;;;;;2.52;80.86;96095.25;5073285;28;20200;-78
2020/12/20 01:46:16;;;;;;;7.67;6.87;;;;;;;2.60;80.58;96092.97;5078035;28;20188;-77
2020/12/20 01:48:43;;;;;;;8.13;7.27;;;;;;;2.54;81.17;96088.31;5077903;28;20261;-77
2020/12/20 01:51:09;;;;;;;7.63;6.83;;;;;;;2.40;81.71;96089.38;5078003;28;20213;-77
2020/12/20 01:53:36;;;;;;;8.40;7.50;;;;;;;2.37;81.69;96081.16;5078181;28;20227;-78
2020/12/20 01:56:03;;;;;;;7.40;6.67;;;;;;;2.44;81.84;96079.78;5078117;28;20605;-78
2020/12/20 01:58:31;;;;;;;8.20;7.40;;;;;;;2.51;81.70;96080.13;5078414;28;20205;-77
2020/12/20 02:00:58;;;;;;;8.07;7.27;;;;;;;2.41;81.61;96083.34;5077759;28;20730;-78
2020/12/20 02:03:24;;;;;;;8.37;7.47;;;;;;;2.23;83.14;96078.84;5077836;28;20188;-78
2020/12/20 02:05:51;;;;;;;8.00;7.20;;;;;;;2.34;82.76;96066.13;5078346;28;20288;-78
2020/12/20 02:08:18;;;;;;;7.97;7.17;;;;;;;2.34;82.59;96063.59;5078267;28;20197;-78
2020/12/20 02:10:44;;;;;;;8.33;7.30;;;;;;;2.14;83.63;96065.06;5078091;28;20265;-78
2020/12/20 02:13:10;;;;;;;8.30;7.40;;;;;;;2.11;84.41;96054.34;5077959;28;20223;-76
2020/12/20 02:15:37;;;;;;;8.23;7.43;;;;;;;2.24;83.54;96055.84;5078152;28;20763;-77
2020/12/20 02:18:03;;;;;;;8.30;7.40;;;;;;;2.29;83.36;96052.97;5077647;28;20201;-77
2020/12/20 02:20:29;;;;;;;7.53;6.73;;;;;;;2.39;82.92;96058.97;5078140;28;20200;-78
2020/12/20 02:22:56;;;;;;;8.10;7.30;;;;;;;2.54;81.92;96062.09;5077833;28;20208;-78
2020/12/20 02:25:22;;;;;;;7.70;7.00;;;;;;;2.66;81.20;96048.47;5077806;28;20208;-77
2020/12/20 02:27:47;;;;;;;9.23;7.97;;;;;;;2.57;81.50;96057.59;5077993;28;20200;-76
2020/12/20 02:30:13;;;;;;;9.53;8.10;;;;;;;2.49;81.90;96049.75;5077840;28;20200;-78
2020/12/20 02:32:39;;;;;;;8.67;7.77;;;;;;;2.43;82.08;96042.59;5077409;28;20224;-78
2020/12/20 02:35:05;;;;;;;9.10;8.10;;;;;;;2.31;82.60;96051.91;5077467;28;20211;-77
2020/12/20 02:37:31;;;;;;;9.97;7.77;;;;;;;2.08;83.91;96043.50;5078043;28;20246;-75
2020/12/20 02:39:59;;;;;;;9.93;7.63;;;;;;;2.17;83.93;96044.53;5077510;28;20571;-78
2020/12/20 02:42:25;;;;;;;9.07;7.80;;;;;;;2.16;83.34;96042.91;5077757;28;20212;-78
2020/12/20 02:44:51;;;;;;;8.27;7.43;;;;;;;2.14;83.50;96049.81;5077257;28;20201;-76
2020/12/20 02:47:17;;;;;;;8.87;7.90;;;;;;;2.04;84.09;96053.97;5077652;28;20207;-77
2020/12/20 02:49:43;;;;;;;8.87;7.53;;;;;;;1.82;85.10;96052.19;5078032;28;20288;-78
2020/12/20 02:52:09;;;;;;;8.37;7.43;;;;;;;1.69;85.83;96047.22;5077559;28;20224;-78
2020/12/20 02:54:34;;;;;;;8.23;7.37;;;;;;;1.55;86.09;96051.63;5077327;28;20587;-77
2020/12/20 02:57:01;;;;;;;9.03;7.90;;;;;;;1.60;86.34;96034.34;5073735;28;20193;-75
2020/12/20 02:59:27;;;;;;;8.43;7.60;;;;;;;1.60;86.10;96044.50;5074530;28;20672;-77
2020/12/20 03:01:53;;;;;;;9.03;7.70;;;;;;;1.69;85.87;96043.84;5073966;28;20213;-77
2020/12/20 03:04:19;;;;;;;8.13;7.23;;;;;;;1.74;84.71;96041.78;5074531;28;20204;-75
2020/12/20 03:06:45;;;;;;;9.53;7.93;;;;;;;1.67;85.72;96040.63;5074502;28;20193;-78
2020/12/20 03:09:11;;;;;;;9.63;8.00;;;;;;;1.60;86.31;96041.97;5074242;28;20201;-78
2020/12/20 03:11:36;;;;;;;8.80;7.90;;;;;;;1.61;85.52;96041.06;5074152;28;20216;-78
2020/12/20 03:14:04;;;;;;;9.43;8.03;;;;;;;1.59;85.69;96041.16;5073884;28;20212;-78
2020/12/20 03:16:30;;;;;;;11.27;8.90;;;;;;;1.51;86.33;96040.91;5074082;28;20296;-77
2020/12/20 03:18:56;;;;;;;9.53;8.13;;;;;;;1.61;85.78;96053.75;5074412;28;20291;-78
2020/12/20 03:21:22;;;;;;;9.53;8.53;;;;;;;1.53;85.94;96064.47;5073939;28;20294;-79
2020/12/20 03:23:48;;;;;;;8.87;7.90;;;;;;;1.42;86.65;96059.31;5074134;28;20254;-77
2020/12/20 03:26:14;;;;;;;11.03;8.37;;;;;;;1.48;86.74;96046.22;5073734;28;20198;-77
2020/12/20 03:28:40;;;;;;;8.40;7.43;;;;;;;1.52;86.72;96044.28;5074301;28;20722;-76
2020/12/20 03:31:07;;;;;;;9.27;8.27;;;;;;;1.53;85.88;96045.88;5073555;28;20243;-77
2020/12/20 03:33:33;;;;;;;8.87;7.93;;;;;;;1.52;86.44;96045.06;5074041;28;20220;-78
2020/12/20 03:35:59;;;;;;;9.77;8.47;;;;;;;1.50;86.01;96041.84;5073630;28;20205;-75
2020/12/20 03:38:24;;;;;;;9.60;8.37;;;;;;;1.59;86.15;96032.75;5073947;28;20686;-75
2020/12/20 03:40:50;;;;;;;8.60;7.70;;;;;;;1.66;85.72;96033.94;5073470;28;20220;-78
2020/12/20 03:43:16;;;;;;;9.77;8.50;;;;;;;1.51;86.57;96035.03;5073800;28;20235;-77
2020/12/20 03:45:42;;;;;;;9.73;8.10;;;;;;;1.44;86.94;96034.66;5073293;28;20313;-77
2020/12/20 03:48:09;;;;;;;9.23;8.10;;;;;;;1.40;87.17;96033.25;5073543;28;20197;-78
2020/12/20 03:50:35;;;;;;;9.77;8.17;;;;;;;1.41;86.86;96037.41;5073683;28;20205;-77
2020/12/20 03:53:01;;;;;;;8.80;7.90;;;;;;;1.52;86.36;96022.25;5073457;28;20589;-76
2020/12/20 03:55:27;;;;;;;9.97;8.00;;;;;;;1.57;85.80;96029.50;5073444;28;20205;-75
2020/12/20 03:57:53;;;;;;;9.07;7.87;;;;;;;1.61;85.35;96038.50;5073187;28;20255;-78
2020/12/20 04:00:19;;;;;;;9.27;7.90;;;;;;;1.71;84.55;96036.94;5073567;28;20205;-77
2020/12/20 04:02:45;;;;;;;9.13;8.10;;;;;;;1.86;83.45;96045.16;5073138;28;20216;-78
2020/12/20 04:05:11;;;;;;;8.83;7.93;;;;;;;1.93;83.53;96031.91;5073142;28;20204;-76
2020/12/20 04:07:37;;;;;;;10.17;9.13;;;;;;;2.00;82.69;96035.63;5071937;28;20215;-78
2020/12/20 04:10:04;;;;;;;9.00;8.10;;;;;;;2.10;82.17;96040.03;5073029;28;20227;-77
2020/12/20 04:12:29;;;;;;;9.00;8.10;;;;;;;2.11;81.62;96039.13;5072719;28;20224;-77
2020/12/20 04:14:55;;;;;;;8.80;7.90;;;;;;;2.13;81.99;96049.94;5073172;28;20237;-75
2020/12/20 04:17:21;;;;;;;9.30;7.63;;;;;;;2.13;82.79;96043.13;5073028;28;20197;-78
2020/12/20 04:19:47;;;;;;;8.97;8.07;;;;;;;2.26;82.12;96041.31;5073123;28;20319;-78
2020/12/20 04:22:14;;;;;;;8.67;7.87;;;;;;;2.40;81.28;96046.16;5072479;28;20213;-78
2020/12/20 04:24:40;;;;;;;9.20;7.90;;;;;;;2.44;80.64;96041.66;5072988;28;20209;-78
2020/12/20 04:27:05;;;;;;;8.47;7.53;;;;;;;2.43;80.25;96042.59;5072685;28;20203;-78
2020/12/20 04:29:31;;;;;;;9.67;8.07;;;;;;;2.35;80.11;96038.06;5073109;28;20740;-78
2020/12/20 04:32:00;;;;;;;10.13;8.37;;;;;;;2.28;80.55;96039.47;5072621;28;20224;-78
2020/12/20 04:34:25;;;;;;;9.53;7.80;;;;;;;2.38;80.62;96042.94;5072764;28;20232;-78
2020/12/20 04:36:51;;;;;;;9.17;8.17;;;;;;;2.45;79.99;96042.47;5072409;28;20203;-78
2020/12/20 04:39:18;;;;;;;10.27;8.67;;;;;;;2.28;80.72;96036.13;5072465;28;20193;-78
2020/12/20 04:41:44;;;;;;;9.50;8.37;;;;;;;2.24;80.83;96034.72;5072193;28;20239;-75
2020/12/20 04:44:10;;;;;;;8.27;7.33;;;;;;;2.29;81.29;96035.19;5072365;28;20679;-77
2020/12/20 04:46:36;;;;;;;8.80;7.80;;;;;;;2.21;81.16;96038.31;5072339;28;20204;-78
2020/12/20 04:49:02;;;;;;;9.53;8.27;;;;;;;2.21;80.86;96034.94;5072481;28;20196;-77
2020/12/20 04:51:28;;;;;;;9.53;8.27;;;;;;;2.07;80.73;96029.19;5072228;28;20216;-75
2020/12/20 04:53:58;;;;;;;9.13;8.10;;;;;;;2.07;81.18;96031.72;5071993;28;20221;-77
2020/12/20 04:56:27;;;;;;;8.87;7.97;;;;;;;2.06;80.78;96031.81;5072572;28;20673;-77
2020/12/20 04:58:55;;;;;;;9.00;7.87;;;;;;;1.96;81.51;96028.31;5072602;28;20200;-77
2020/12/20 05:01:21;;;;;;;9.00;7.70;;;;;;;1.91;82.20;96040.56;5071668;28;20228;-76
2020/12/20 05:03:47;;;;;;;8.77;7.83;;;;;;;1.90;82.44;96037.22;5071992;28;20251;-77
2020/12/20 05:06:14;;;;;;;8.60;7.70;;;;;;;1.94;82.19;96043.66;5071928;28;20193;-78
2020/12/20 05:08:40;;;;;;;7.97;7.17;;;;;;;1.92;81.80;96039.66;5072267;28;20678;-78
2020/12/20 05:11:05;;;;;;;8.73;7.60;;;;;;;1.90;81.41;96037.22;5072003;28;20232;-78
2020/12/20 05:13:39;;;;;;;8.80;7.90;;;;;;;1.91;81.77;96038.84;5072184;28;20221;-76
2020/12/20 05:16:05;;;;;;;8.93;7.60;;;;;;;1.82;82.03;96036.97;5072011;28;20196;-73
2020/12/20 05:18:31;;;;;;;9.93;8.37;;;;;;;1.80;81.91;96038.81;5071876;28;20197;-74
2020/12/20 05:20:57;;;;;;;9.23;7.80;;;;;;;1.82;82.26;96038.69;5071748;28;20274;-73
2020/12/20 05:23:29;;;;;;;8.23;7.33;;;;;;;1.90;82.08;96038.94;5072057;28;20262;-75
2020/12/20 05:26:05;;;;;;;8.90;7.80;;;;;;;1.94;81.70;96037.78;5071687;28;20205;-76
2020/12/20 05:28:31;;;;;;;7.83;6.90;;;;;;;2.06;80.84;96037.72;5052055;28;20196;-76
2020/12/20 05:31:06;;;;;;;8.20;7.40;;;;;;;2.06;80.76;96035.16;5052063;28;20750;-76
2020/12/20 05:33:33;;;;;;;9.20;7.03;;;;;;;2.13;80.56;96035.50;5057174;28;20221;-74
2020/12/20 05:36:00;;;;;;;8.73;7.37;;;;;;;2.02;80.68;96038.84;5071328;28;20734;-76
2020/12/20 05:38:26;;;;;;;8.53;7.63;;;;;;;1.98;80.50;96037.47;5071810;28;20574;-76
2020/12/20 05:40:52;;;;;;;8.30;7.40;;;;;;;1.93;81.09;96036.16;5071960;28;20308;-76
2020/12/20 05:43:23;;;;;;;8.43;7.53;;;;;;;1.90;81.77;96038.94;5071503;28;20251;-74
2020/12/20 05:45:49;;;;;;;7.47;6.73;;;;;;;1.96;81.43;96039.28;5071359;28;20211;-73
2020/12/20 05:48:17;;;;;;;8.53;7.37;;;;;;;2.00;81.37;96039.88;5071620;28;20287;-76
2020/12/20 05:50:49;;;;;;;8.77;7.60;;;;;;;2.02;81.02;96041.41;5071774;28;20228;-75
2020/12/20 05:53:21;;;;;;;8.90;7.87;;;;;;;1.99;81.22;96033.19;5071314;28;20621;-76
2020/12/20 05:55:47;;;;;;;8.60;7.63;;;;;;;2.02;80.70;96036.31;5081924;22;20290;-75
2020/12/20 05:58:14;;;;;;;8.00;7.20;;;;;;;1.98;80.79;96040.00;5051291;28;20571;-76
2020/12/20 06:00:41;;;;;;;9.00;7.47;;;;;;;1.78;81.90;96034.75;5051524;28;20208;-75
2020/12/20 06:03:08;;;;;;;9.03;7.80;;;;;;;1.79;82.53;96036.38;5051343;28;20197;-75
2020/12/20 06:05:37;;;;;;;8.90;7.73;;;;;;;1.91;81.90;96032.97;5051744;28;20225;-75
2020/12/20 06:08:05;;;;;;;9.07;8.07;;;;;;;2.01;81.27;96033.88;5051431;28;20209;-77
2020/12/20 06:10:40;;;;;;;9.77;8.07;;;;;;;2.08;81.03;96035.06;5051626;28;20190;-76
2020/12/20 06:13:09;;;;;;;8.57;7.63;;;;;;;2.21;80.58;96037.50;5051533;28;20216;-75
2020/12/20 06:15:38;;;;;;;9.30;7.70;;;;;;;2.30;80.28;96036.81;5051195;28;20240;-76
2020/12/20 06:18:08;;;;;;;8.73;7.83;;;;;;;2.16;79.95;96037.00;5051544;28;20285;-76
2020/12/20 06:20:48;;;;;;;9.63;7.97;;;;;;;1.94;81.00;96033.50;5051509;28;20288;-76
2020/12/20 06:23:18;;;;;;;9.30;8.07;;;;;;;1.65;82.59;96037.38;5051304;28;20260;-77
2020/12/20 06:25:46;;;;;;;9.97;8.60;;;;;;;1.46;84.42;96042.16;5050854;28;20222;-76
2020/12/20 06:28:17;;;;;;;9.90;8.33;;;;;;;1.52;84.45;96037.47;5051603;28;20198;-76
2020/12/20 06:30:43;;;;;;;10.00;8.43;;;;;;;1.52;84.46;96034.94;5052565;28;20602;-75
2020/12/20 06:33:26;;;;;;;10.13;8.70;;;;;;;1.51;84.90;96033.31;5055505;28;20271;-77
2020/12/20 06:35:54;;;;;;;9.87;8.13;;;;;;;1.49;85.10;96034.34;5054832;28;20334;-76
2020/12/20 06:38:22;;;;;;;11.10;8.13;;;;;;;1.56;84.64;96026.16;5055273;28;20220;-76
2020/12/20 06:40:49;;;;;;;9.87;8.23;;;;;;;1.64;84.46;96020.53;5054145;28;20247;-76
2020/12/20 06:43:15;;;;;;;9.53;7.93;;;;;;;1.61;84.32;96023.28;5054605;28;20229;-76
2020/12/20 06:45:46;;;;;;;9.43;8.43;;;;;;;1.60;84.67;96030.09;5054931;28;20221;-76
2020/12/20 06:48:13;;;;;;;9.03;8.10;;;;;;;1.50;85.09;96034.22;5054655;28;20197;-75
2020/12/20 06:50:47;;;;;;;9.93;8.07;;;;;;;1.41;85.49;96036.59;5055888;28;20636;-76
2020/12/20 06:53:15;;;;;;;9.30;8.30;;;;;;;1.26;86.17;96041.84;5054565;28;20232;-76
2020/12/20 06:55:41;;;;;;;9.00;8.10;;;;;;;1.16;87.26;96043.41;5054469;28;20814;-76
2020/12/20 06:58:17;;;;;;;10.93;8.50;;;;;;;1.14;86.97;96037.66;5055032;28;20201;-76
2020/12/20 07:00:49;;;;;;;10.23;8.20;;;;;;;1.12;87.50;96038.66;5035100;28;20383;-76
2020/12/20 07:03:35;;;;;;;9.40;8.00;;;;;;;1.06;87.61;96039.91;5035714;28;20275;-75
2020/12/20 07:06:16;;;;;;;8.83;7.80;;;;;;;1.03;88.17;96037.56;5054345;28;20217;-76
2020/12/20 07:08:54;;;;;;;9.97;8.23;;;;;;;1.13;87.38;96038.56;5054819;28;20201;-76
2020/12/20 07:11:21;;;;;;;10.60;8.73;;;;;;;1.27;86.83;96043.47;5054394;28;20197;-75
2020/12/20 07:13:48;;;;;;;8.83;7.50;;;;;;;1.44;85.58;96037.19;5053814;28;20696;-76
2020/12/20 07:16:16;;;;;;;9.93;8.37;;;;;;;1.48;84.45;96030.97;5053817;28;20229;-75
2020/12/20 07:18:50;;;;;;;9.60;8.60;;;;;;;1.52;84.55;96024.78;5054625;28;20204;-76
2020/12/20 07:21:53;;;;;;;9.83;8.00;;;;;;;1.42;85.18;96036.50;5054282;28;20205;-76
2020/12/20 07:24:21;;;;;;;9.97;8.23;;;;;;;1.36;85.82;96039.44;5053581;28;20202;-75
2020/12/20 07:26:49;;;;;;;10.63;8.50;;;;;;;1.31;86.26;96042.34;5053973;28;20267;-75
2020/12/20 07:29:15;;;;;;;9.50;8.40;;;;;;;1.26;86.59;96043.56;5054029;28;20200;-75
2020/12/20 07:31:42;;;;;;;9.40;8.40;;;;;;;1.24;86.92;96036.06;5054214;28;20202;-76
2020/12/20 07:34:08;;;;;;;9.37;7.93;;;;;;;1.28;86.19;96040.00;5053286;28;20220;-76
2020/12/20 07:36:35;;;;;;;9.13;7.73;;;;;;;1.30;86.26;96044.97;5054216;28;20229;-76
2020/12/20 07:39:03;;;;;;;9.17;7.60;;;;;;;1.40;86.15;96045.94;5053465;28;20572;-76
2020/12/20 07:41:29;;;;;;;10.03;7.47;;;;;;;1.40;92.07;96053.53;5054288;28;20198;-74
2020/12/20 07:43:56;;;;;;;10.13;7.60;;;;;;;2.05;100.00;96047.97;5053227;28;20542;-72
2020/12/20 07:46:22;;;;;;;10.83;8.17;;;;;;;2.81;100.00;96054.13;5054867;28;20700;-73
2020/12/20 07:48:50;;;;;;;9.70;6.93;;;;;;;3.57;100.00;96045.59;5053372;28;20196;-73
2020/12/20 07:51:18;;;;;;;7.87;7.03;;;;;;;3.83;83.41;96049.44;5053938;28;20675;-76
2020/12/20 07:53:45;;;;;;;7.67;6.90;;;;;;;3.45;77.39;96047.41;5053121;28;20213;-76
2020/12/20 07:56:21;;;;;;;8.00;7.20;;;;;;;2.87;78.22;96040.94;5053795;28;20618;-75
2020/12/20 07:58:48;;;;;;;7.87;7.00;;;;;;;2.68;79.12;96050.00;5053657;28;20190;-77
2020/12/20 08:01:14;;;;;;;8.90;8.00;;;;;;;2.55;80.37;96040.84;5053935;28;20204;-76
2020/12/20 08:03:40;;;;;;;9.10;7.10;;;;;;;2.57;80.64;96054.25;5053411;28;20589;-75
2020/12/20 08:06:08;;;;;;;7.97;7.17;;;;;;;2.65;79.89;96046.88;5053361;28;20221;-76
2020/12/20 08:08:34;;;;;;;7.77;6.97;;;;;;;2.66;78.98;96064.53;5053631;28;20213;-76
2020/12/20 08:11:03;;;;;;;8.77;7.13;;;;;;;2.42;79.44;96058.75;5053360;28;20783;-76
2020/12/20 08:13:31;;;;;;;8.67;7.60;;;;;;;2.17;79.70;96054.69;5053044;28;20316;-76
2020/12/20 08:15:58;;;;;;;8.27;7.47;;;;;;;2.14;80.33;96051.56;5052931;28;20594;-76
2020/12/20 08:18:25;;;;;;;9.47;7.60;;;;;;;2.03;81.00;96053.16;5052853;28;20270;-75
2020/12/20 08:20:51;;;;;;;8.63;7.80;;;;;;;2.04;81.27;96044.63;5052924;28;20194;-75
2020/12/20 08:23:19;;;;;;;8.53;7.50;;;;;;;2.04;81.59;96048.91;5053006;28;20731;-75
2020/12/20 08:25:46;;;;;;;10.40;7.43;;;;;;;2.03;82.30;96048.09;5038597;28;20218;-77
2020/12/20 08:28:12;;;;;;;8.47;7.43;;;;;;;1.94;81.95;96051.28;5051322;28;20231;-76
2020/12/20 08:30:38;;;;;;;8.60;7.70;;;;;;;1.99;82.25;96044.16;5051832;28;20301;-76
2020/12/20 08:33:05;;;;;;;9.33;8.00;;;;;;;1.83;82.74;96048.75;5051954;28;20719;-75
2020/12/20 08:35:31;;;;;;;8.40;7.23;;;;;;;1.84;82.78;96041.94;5051792;28;20217;-75
2020/12/20 08:37:58;;;;;;;8.40;7.30;;;;;;;1.68;83.43;96048.13;5052147;28;20197;-74
2020/12/20 08:40:30;;;;;;;8.40;7.13;;;;;;;1.72;83.34;96049.53;5051825;28;20734;-75
2020/12/20 08:42:58;;;;;;;9.30;8.00;;;;;;;1.82;83.32;96049.66;5041772;28;20197;-75
2020/12/20 08:45:25;;;;;;;9.00;7.73;;;;;;;1.88;82.78;96053.50;5050691;28;20221;-75
2020/12/20 08:47:52;;;;;;;8.97;7.43;;;;;;;1.93;82.59;96048.84;5051427;28;20201;-75
2020/12/20 08:50:25;;;;;;;8.77;7.53;;;;;;;1.96;82.30;96051.19;5051859;28;20248;-75
2020/12/20 08:52:58;;;;;;;9.23;8.07;;;;;;;2.04;82.41;96052.25;5051273;28;20217;-75
2020/12/20 08:55:24;;;;;;;8.00;7.07;;;;;;;2.15;81.31;96051.44;5049311;28;20260;-75
2020/12/20 08:58:00;;;;;;;9.07;6.90;;;;;;;2.24;80.82;96045.69;5046272;28;20243;-75
2020/12/20 09:00:26;;;;;;;8.47;7.57;;;;;;;2.37;80.72;96048.94;5044689;28;20357;-75
2020/12/20 09:02:56;;;;;;;8.17;7.20;;;;;;;2.52;79.65;96046.16;5043813;28;21011;-75
2020/12/20 09:05:22;;;;;;;8.40;7.00;;;;;;;2.67;78.80;96050.91;5043842;28;20287;-75
2020/12/20 09:07:53;;;;;;;7.77;6.97;;;;;;;2.61;78.40;96051.38;5043964;28;20653;-75
2020/12/20 09:10:24;;;;;;;8.90;7.83;;;;;;;2.72;78.58;96053.88;5043547;28;20355;-75
2020/12/20 09:12:51;;;;;;;8.93;7.63;;;;;;;2.79;78.17;96051.69;5044305;28;20504;-75
2020/12/20 09:15:18;;;;;;;8.17;7.37;;;;;;;2.54;78.02;96057.81;5043575;28;20233;-76
2020/12/20 09:17:46;;;;;;;8.10;7.30;;;;;;;2.32;78.85;96061.16;5044068;28;20559;-74
2020/12/20 09:20:14;;;;;;;8.80;7.90;;;;;;;2.26;80.25;96066.72;5044349;28;20202;-74
2020/12/20 09:22:42;;;;;;;8.30;7.40;;;;;;;2.29;79.80;96070.78;5044469;28;20571;-74
2020/12/20 09:25:09;;;;;;;8.63;7.43;;;;;;;2.30;79.32;96078.28;5043140;28;20716;-75
2020/12/20 09:27:35;;;;;;;8.17;6.93;;;;;;;2.34;79.42;96064.41;5044112;28;20193;-76
2020/12/20 09:30:02;;;;;;;8.67;7.67;;;;;;;2.33;79.53;96061.97;5044557;28;20202;-75
2020/12/20 09:32:35;;;;;;;8.77;7.30;;;;;;;2.33;79.62;96061.97;5044091;28;20217;-75
2020/12/20 09:35:04;;;;;;;7.57;6.77;;;;;;;2.42;79.24;96062.09;5043500;28;20220;-75
2020/12/20 09:37:30;;;;;;;10.00;7.13;;;;;;;2.42;79.32;96067.19;5043582;28;20200;-75
2020/12/20 09:39:57;;;;;;;8.17;7.33;;;;;;;2.30;79.48;96067.31;5043854;28;20193;-76
2020/12/20 09:42:24;;;;;;;8.37;7.43;;;;;;;2.22;81.34;96078.03;5043865;28;20185;-74
2020/12/20 09:44:51;;;;;;;8.80;7.23;;;;;;;2.33;80.22;96075.47;5043777;28;20197;-76
2020/12/20 09:47:17;;;;;;;8.13;7.33;;;;;;;2.40;79.06;96076.66;5044492;28;20296;-75
2020/12/20 09:49:43;;;;;;;9.00;7.90;;;;;;;2.43;79.46;96076.44;5044263;28;20596;-73
2020/12/20 09:52:09;;;;;;;8.10;7.30;;;;;;;2.55;78.89;96091.69;5043483;28;20193;-75
2020/12/20 09:54:36;;;;;;;8.70;7.80;;;;;;;2.45;78.91;96083.94;5043438;28;20198;-74
2020/12/20 09:57:02;;;;;;;8.47;7.57;;;;;;;2.36;79.41;96082.88;5043724;28;20196;-75
2020/12/20 09:59:29;;;;;;;8.97;7.97;;;;;;;2.43;79.56;96088.31;5043605;28;20201;-74
2020/12/20 10:01:55;;;;;;;8.40;7.50;;;;;;;2.55;78.66;96086.59;5043687;28;20773;-76
2020/12/20 10:04:20;;;;;;;8.47;7.43;;;;;;;2.68;77.95;96083.03;5043535;28;20198;-74
2020/12/20 10:06:46;;;;;;;8.43;7.53;;;;;;;2.54;77.97;96085.78;5046980;28;20224;-75
2020/12/20 10:09:12;;;;;;;8.40;7.50;;;;;;;2.62;78.80;96075.88;5048204;28;20205;-74
2020/12/20 10:11:38;;;;;;;8.40;7.43;;;;;;;2.81;78.69;96065.09;5047878;28;20596;-75
2020/12/20 10:14:04;;;;;;;8.33;7.47;;;;;;;2.92;77.96;96071.91;5048056;28;20320;-74
2020/12/20 10:16:31;;;;;;;8.60;7.70;;;;;;;3.08;77.70;96072.34;5047821;28;20716;-73
2020/12/20 10:18:57;;;;;;;9.10;8.20;;;;;;;3.23;78.24;96065.28;5048367;28;20197;-74
2020/12/20 10:21:23;;;;;;;9.37;8.30;;;;;;;3.32;76.21;96072.16;5047865;28;20217;-75
2020/12/20 10:23:49;;;;;;;9.10;8.20;;;;;;;3.40;75.67;96075.75;5047729;28;20194;-76
2020/12/20 10:26:15;;;;;;;9.50;8.47;;;;;;;3.41;75.18;96071.47;5048038;28;20418;-74
2020/12/20 10:28:40;;;;;;;10.73;7.97;;;;;;;3.52;75.58;96073.16;5048350;28;20731;-75
2020/12/20 10:31:06;;;;;;;8.10;7.27;;;;;;;3.57;75.20;96076.97;5048076;28;20665;-76
2020/12/20 10:33:33;;;;;;;8.90;7.50;;;;;;;3.44;75.01;96081.41;5047515;28;20221;-75
2020/12/20 10:35:59;;;;;;;8.47;7.57;;;;;;;3.44;74.86;96087.31;5046637;28;20741;-74
2020/12/20 10:38:25;;;;;;;8.53;7.63;;;;;;;3.44;74.17;96079.69;5047537;28;20209;-73
2020/12/20 10:40:51;;;;;;;8.63;7.73;;;;;;;3.40;74.87;96077.47;5048157;28;20201;-75
2020/12/20 10:43:17;;;;;;;8.67;7.73;;;;;;;3.57;75.06;96084.59;5048062;28;20196;-74
2020/12/20 10:45:43;;;;;;;9.30;8.07;;;;;;;3.61;74.99;96070.69;5046870;28;20786;-73
2020/12/20 10:48:09;;;;;;;8.43;7.30;;;;;;;3.68;74.42;96068.47;5047595;28;20208;-74
2020/12/20 10:50:36;;;;;;;8.93;7.60;;;;;;;3.71;73.61;96060.59;5047446;28;20330;-73
2020/12/20 10:53:02;;;;;;;9.37;7.90;;;;;;;3.78;74.36;96052.34;5047910;28;20221;-75
2020/12/20 10:55:28;;;;;;;8.40;7.60;;;;;;;3.79;73.54;96048.06;5046692;28;20241;-73
2020/12/20 10:57:54;;;;;;;9.17;7.53;;;;;;;3.59;74.09;96048.84;5047248;28;20218;-75
2020/12/20 11:00:22;;;;;;;9.20;7.23;;;;;;;3.67;74.78;96044.72;5046670;28;20251;-75
2020/12/20 11:02:48;;;;;;;8.40;7.60;;;;;;;3.81;74.42;96049.56;5046244;28;20270;-74
2020/12/20 11:05:14;;;;;;;8.97;8.07;;;;;;;3.91;73.85;96054.69;5046101;28;20224;-74
2020/12/20 11:07:41;;;;;;;8.23;7.43;;;;;;;4.02;73.88;96061.47;5047112;28;20284;-73
2020/12/20 11:10:06;;;;;;;7.87;7.07;;;;;;;4.07;73.50;96067.00;5047237;28;20202;-76
2020/12/20 11:12:32;;;;;;;8.70;7.80;;;;;;;4.08;72.53;96063.50;5046392;28;20228;-76
2020/12/20 11:14:58;;;;;;;8.93;7.57;;;;;;;3.98;72.97;96063.47;5045906;28;20213;-74
2020/12/20 11:17:24;;;;;;;7.60;6.90;;;;;;;3.88;72.96;96062.56;5045790;28;20291;-75
2020/12/20 11:19:53;;;;;;;8.73;7.43;;;;;;;3.84;73.06;96061.22;5037563;28;20240;-77
2020/12/20 11:22:19;;;;;;;8.03;7.27;;;;;;;3.98;74.23;96055.81;5046448;28;20190;-75
2020/12/20 11:24:46;;;;;;;8.23;7.37;;;;;;;4.04;73.32;96052.75;5045766;28;20197;-75
2020/12/20 11:27:12;;;;;;;7.93;7.13;;;;;;;4.25;73.15;96047.66;5046584;28;20204;-75
2020/12/20 11:29:39;;;;;;;8.10;7.30;;;;;;;4.41;72.51;96049.78;5046457;28;20759;-74
2020/12/20 11:32:05;;;;;;;7.67;6.93;;;;;;;4.49;71.09;96043.06;5046437;28;20368;-76
2020/12/20 11:34:31;;;;;;;7.93;7.13;;;;;;;4.56;71.45;96045.13;5045802;28;20259;-75
2020/12/20 11:36:57;;;;;;;9.27;7.03;;;;;;;4.53;71.08;96042.81;5046130;28;20351;-75
2020/12/20 11:39:23;;;;;;;8.00;7.20;;;;;;;4.35;71.36;96048.53;5046565;28;20715;-75
2020/12/20 11:41:50;;;;;;;8.43;7.40;;;;;;;4.46;71.47;96040.78;5045947;28;20841;-75